Time;durP1;ratioP1;P1;durP2;ratioP2;P2;SDS_P1;SDS_P2;PMS_P1;PMS_P2;Temp;Humidity;BMP_temperature;BMP_pressure;BME280_temperature;BME280_humidity;BME280_pressure;Samples;Min_cycle;Max_cycle;Signal;HPM_P1;HPM_P2
2021/05/24 00:00:27;;;;;;;3.10;1.30;;;410.00;2099.20;;;;;;5100925;28;20465;-88
2021/05/24 00:02:53;;;;;;;3.72;1.23;;;410.00;2099.20;;;;;;5103782;28;20439;-89
2021/05/24 00:05:23;;;;;;;2.03;1.13;;;410.00;2099.20;;;;;;5114356;28;20023;-89
2021/05/24 00:07:49;;;;;;;3.72;1.30;;;410.00;2099.20;;;;;;5101405;28;20047;-88
2021/05/24 00:10:23;;;;;;;3.05;1.42;;;409.90;2124.80;;;;;;5107288;28;20051;-90
2021/05/24 00:12:51;;;;;;;2.30;1.40;;;409.90;2099.20;;;;;;5106379;28;20028;-90
2021/05/24 00:15:21;;;;;;;3.05;1.40;;;409.90;2124.80;;;;;;5097908;28;20074;-90
2021/05/24 00:17:48;;;;;;;3.05;1.25;;;409.90;2124.80;;;;;;5107753;28;20032;-89
2021/05/24 00:20:14;;;;;;;2.88;1.33;;;409.70;2124.80;;;;;;5105638;28;20024;-89
2021/05/24 00:22:40;;;;;;;14.95;1.85;;;409.70;2150.40;;;;;;5108315;28;20059;-89
2021/05/24 00:25:07;;;;;;;4.35;1.52;;;409.70;2124.80;;;;;;5104664;28;20023;-88
2021/05/24 00:27:34;;;;;;;4.15;1.30;;;409.60;2124.80;;;;;;5106039;28;20065;-92
2021/05/24 00:29:59;;;;;;;6.32;1.40;;;409.60;2124.80;;;;;;5103366;28;20024;-88
2021/05/24 00:32:25;;;;;;;2.30;1.52;;;409.60;2124.80;;;;;;5094673;28;20042;-93
2021/05/24 00:34:51;;;;;;;2.50;1.40;;;409.60;2124.80;;;;;;5094863;28;20044;-86
2021/05/24 00:37:17;;;;;;;3.60;1.30;;;409.60;2124.80;;;;;;5097833;28;20040;-89
2021/05/24 00:39:43;;;;;;;4.82;1.50;;;409.60;2124.80;;;;;;5094773;28;20477;-87
2021/05/24 00:42:09;;;;;;;2.05;1.05;;;384.90;2099.20;;;;;;5110079;28;20118;-93
2021/05/24 00:44:35;;;;;;;2.70;1.25;;;384.80;2099.20;;;;;;5114973;28;20043;-85
2021/05/24 00:47:01;;;;;;;2.03;0.98;;;384.90;2099.20;;;;;;5105426;28;20024;-86
2021/05/24 00:49:28;;;;;;;3.08;1.50;;;384.80;2099.20;;;;;;5109894;28;20020;-86
2021/05/24 00:51:55;;;;;;;3.25;1.70;;;384.80;2099.20;;;;;;5111156;28;20469;-86
2021/05/24 00:54:23;;;;;;;2.88;1.33;;;384.70;2124.80;;;;;;5107472;28;20142;-86
2021/05/24 00:56:49;;;;;;;3.92;1.30;;;384.70;2124.80;;;;;;5113657;28;20072;-87
2021/05/24 00:59:16;;;;;;;3.33;1.33;;;384.70;2124.80;;;;;;5113835;28;20468;-87
2021/05/24 01:01:42;;;;;;;3.03;1.67;;;384.80;2099.20;;;;;;5105774;28;20024;-86
2021/05/24 01:04:09;;;;;;;2.50;1.45;;;384.80;2099.20;;;;;;5103896;28;20070;-86
2021/05/24 01:06:35;;;;;;;2.38;1.23;;;384.70;2124.80;;;;;;5100533;28;20035;-86
2021/05/24 01:09:01;;;;;;;4.30;1.45;;;384.70;2124.80;;;;;;5110343;28;20020;-86
2021/05/24 01:11:26;;;;;;;4.45;1.30;;;384.70;2150.40;;;;;;5106170;28;20416;-86
2021/05/24 01:13:53;;;;;;;4.60;1.17;;;384.70;2150.40;;;;;;5103086;28;20031;-86
2021/05/24 01:16:18;;;;;;;1.60;1.08;;;384.40;2150.40;;;;;;5104240;28;20036;-86
2021/05/24 01:18:44;;;;;;;3.10;1.20;;;384.80;2124.80;;;;;;5096990;28;20028;-87
2021/05/24 01:21:16;;;;;;;2.92;1.40;;;384.70;2150.40;;;;;;5108151;28;20057;-86
2021/05/24 01:23:46;;;;;;;3.05;1.35;;;384.70;2150.40;;;;;;5102129;28;20067;-86
2021/05/24 01:26:14;;;;;;;2.38;1.30;;;384.70;2150.40;;;;;;5109637;28;20032;-87
2021/05/24 01:28:40;;;;;;;3.03;1.33;;;384.80;2124.80;;;;;;5107165;28;20081;-86
2021/05/24 01:31:06;;;;;;;1.95;1.25;;;384.90;2124.80;;;;;;5101280;28;20085;-85
2021/05/24 01:33:35;;;;;;;8.30;1.65;;;384.90;2124.80;;;;;;5104372;28;20020;-85
2021/05/24 01:36:02;;;;;;;4.00;1.58;;;384.80;2124.80;;;;;;5098582;28;20024;-83
2021/05/24 01:38:28;;;;;;;3.08;1.67;;;384.70;2124.80;;;;;;5104870;28;20075;-85
2021/05/24 01:40:54;;;;;;;2.47;1.45;;;384.60;2150.40;;;;;;5107928;28;20045;-86
2021/05/24 01:43:20;;;;;;;4.00;1.55;;;384.60;2124.80;;;;;;5106087;28;20024;-86
2021/05/24 01:45:46;;;;;;;2.58;1.33;;;384.60;2124.80;;;;;;5100753;28;20069;-86
2021/05/24 01:48:11;;;;;;;3.42;1.88;;;384.60;2124.80;;;;;;5106189;28;20085;-86
2021/05/24 01:50:38;;;;;;;4.40;1.40;;;384.60;2124.80;;;;;;5109134;28;20047;-86
2021/05/24 01:53:04;;;;;;;2.55;1.60;;;384.70;2124.80;;;;;;5093990;28;20027;-87
2021/05/24 01:55:30;;;;;;;3.05;1.63;;;384.60;2150.40;;;;;;5095587;28;20371;-86
2021/05/24 01:57:56;;;;;;;2.60;1.60;;;384.50;2150.40;;;;;;5102698;28;20036;-86
2021/05/24 02:00:23;;;;;;;3.20;1.70;;;384.50;2150.40;;;;;;5102519;28;20089;-86
2021/05/24 02:02:52;;;;;;;5.10;1.95;;;384.60;2150.40;;;;;;5104455;28;20023;-86
2021/05/24 02:05:19;;;;;;;5.53;1.55;;;384.60;2176.00;;;;;;5099693;28;20485;-85
2021/05/24 02:07:51;;;;;;;8.65;2.10;;;384.60;2176.00;;;;;;5100297;28;20117;-90
2021/05/24 02:10:21;;;;;;;3.88;2.00;;;384.50;2176.00;;;;;;5103729;28;20027;-85
2021/05/24 02:12:47;;;;;;;3.08;1.83;;;384.30;2201.60;;;;;;5102390;28;20024;-85
2021/05/24 02:15:19;;;;;;;5.18;1.58;;;384.30;2201.60;;;;;;5104861;28;20540;-85
2021/05/24 02:17:45;;;;;;;3.17;1.90;;;384.50;2176.00;;;;;;5102029;28;20430;-87
2021/05/24 02:20:12;;;;;;;4.80;2.15;;;384.50;2176.00;;;;;;5101346;28;20027;-85
2021/05/24 02:22:38;;;;;;;6.43;2.40;;;384.40;2201.60;;;;;;5100796;28;20043;-86
2021/05/24 02:25:06;;;;;;;5.18;1.88;;;384.40;2201.60;;;;;;5102513;28;20024;-85
2021/05/24 02:27:32;;;;;;;5.40;1.95;;;384.50;2176.00;;;;;;5102318;28;20028;-85
2021/05/24 02:29:58;;;;;;;3.35;2.10;;;384.30;2201.60;;;;;;5101671;28;20427;-87
2021/05/24 02:32:24;;;;;;;3.60;2.00;;;384.30;2227.20;;;;;;5111840;28;20537;-85
2021/05/24 02:34:50;;;;;;;3.90;2.28;;;384.30;2227.20;;;;;;5100374;28;20044;-86
2021/05/24 02:37:16;;;;;;;3.75;1.73;;;384.30;2201.60;;;;;;5103810;28;20063;-85
2021/05/24 02:39:41;;;;;;;3.15;1.90;;;384.30;2201.60;;;;;;5109009;28;20089;-87
2021/05/24 02:42:07;;;;;;;3.67;1.75;;;384.30;2201.60;;;;;;5107535;28;20089;-86
2021/05/24 02:44:33;;;;;;;5.20;2.22;;;384.30;2201.60;;;;;;5106283;28;20024;-86
2021/05/24 02:46:59;;;;;;;3.13;1.83;;;384.20;2227.20;;;;;;5100251;28;20024;-87
2021/05/24 02:49:24;;;;;;;2.90;1.63;;;384.30;2201.60;;;;;;5106718;28;20027;-86
2021/05/24 02:51:50;;;;;;;3.60;2.22;;;384.20;2201.60;;;;;;5102595;28;20023;-86
2021/05/24 02:54:16;;;;;;;4.95;2.00;;;384.10;2227.20;;;;;;5105408;28;20028;-86
2021/05/24 02:56:42;;;;;;;4.25;1.75;;;384.10;2227.20;;;;;;5100655;28;20036;-86
2021/05/24 02:59:07;;;;;;;4.07;1.75;;;384.10;2227.20;;;;;;5099397;28;20027;-86
2021/05/24 03:01:33;;;;;;;4.82;1.90;;;384.20;2227.20;;;;;;5105585;28;20016;-87
2021/05/24 03:04:01;;;;;;;4.25;2.40;;;384.20;2227.20;;;;;;5105943;28;20073;-86
2021/05/24 03:06:28;;;;;;;5.13;1.95;;;384.30;2227.20;;;;;;5098191;28;20024;-86
2021/05/24 03:08:54;;;;;;;4.30;1.92;;;384.20;2227.20;;;;;;5103299;28;20023;-87
2021/05/24 03:11:22;;;;;;;6.78;2.00;;;384.20;2227.20;;;;;;5100106;28;20038;-86
2021/05/24 03:13:48;;;;;;;6.18;2.20;;;384.20;2227.20;;;;;;5101226;28;20411;-86
2021/05/24 03:16:14;;;;;;;4.25;1.92;;;384.10;2252.80;;;;;;5096846;28;20032;-85
2021/05/24 03:18:40;;;;;;;7.20;2.17;;;384.20;2252.80;;;;;;5102368;28;20031;-86
2021/05/24 03:21:06;;;;;;;4.00;2.10;;;384.20;2252.80;;;;;;5096055;28;20024;-85
2021/05/24 03:23:31;;;;;;;5.28;2.10;;;384.10;2252.80;;;;;;5102110;28;20028;-87
2021/05/24 03:25:57;;;;;;;3.85;2.45;;;384.10;2252.80;;;;;;5098960;28;20023;-86
2021/05/24 03:28:23;;;;;;;3.78;2.22;;;384.00;2252.80;;;;;;5105083;28;20380;-86
2021/05/24 03:30:49;;;;;;;5.63;2.40;;;384.00;2252.80;;;;;;5105293;28;20015;-86
2021/05/24 03:33:15;;;;;;;4.07;2.30;;;359.30;2278.40;;;;;;5107136;28;20024;-85
2021/05/24 03:35:41;;;;;;;3.63;2.00;;;359.30;2278.40;;;;;;5106200;28;20035;-87
2021/05/24 03:38:07;;;;;;;5.22;2.58;;;359.30;2278.40;;;;;;5103950;28;20389;-85
2021/05/24 03:40:33;;;;;;;6.75;2.35;;;359.30;2278.40;;;;;;5098383;28;20043;-86
2021/05/24 03:42:58;;;;;;;6.15;2.60;;;384.00;2278.40;;;;;;5103492;28;20058;-85
2021/05/24 03:45:30;;;;;;;4.28;2.20;;;359.30;2278.40;;;;;;5112099;28;20109;-86
2021/05/24 03:47:56;;;;;;;3.80;2.42;;;384.00;2252.80;;;;;;5102610;28;20016;-85
2021/05/24 03:50:25;;;;;;;3.70;1.95;;;359.20;2304.00;;;;;;5108846;28;20100;-85
2021/05/24 03:52:51;;;;;;;3.45;2.40;;;359.30;2278.40;;;;;;5102576;28;20099;-84
2021/05/24 03:55:17;;;;;;;5.25;2.53;;;384.00;2278.40;;;;;;5104181;28;20023;-85
2021/05/24 03:57:45;;;;;;;4.60;2.45;;;384.00;2278.40;;;;;;5105319;28;20028;-85
2021/05/24 04:00:13;;;;;;;5.07;2.45;;;384.20;2278.40;;;;;;5102235;28;20038;-85
2021/05/24 04:02:40;;;;;;;4.95;2.75;;;384.10;2278.40;;;;;;5105470;28;20032;-85
2021/05/24 04:05:30;;;;;;;5.97;2.60;;;384.10;2278.40;;;;;;5103479;28;20016;-84
2021/05/24 04:07:57;;;;;;;6.53;2.65;;;384.10;2278.40;;;;;;5111012;28;20019;-85
2021/05/24 04:13:12;;;;;;;4.78;2.60;;;384.20;2278.40;;;;;;5028903;28;20033;-85
2021/05/24 04:15:40;;;;;;;4.25;2.50;;;384.30;2252.80;;;;;;5015840;28;20412;-85
2021/05/24 04:18:12;;;;;;;5.75;2.50;;;384.30;2278.40;;;;;;5016341;28;20065;-85
2021/05/24 04:20:38;;;;;;;3.63;2.35;;;384.30;2278.40;;;;;;5013620;28;20095;-84
2021/05/24 04:23:04;;;;;;;3.70;2.30;;;384.40;2278.40;;;;;;5017468;28;20502;-85
2021/05/24 04:25:30;;;;;;;4.28;2.67;;;384.40;2278.40;;;;;;5033440;28;20457;-85
2021/05/24 04:27:56;;;;;;;4.22;2.42;;;384.40;2252.80;;;;;;5014355;28;20022;-85
2021/05/24 04:30:21;;;;;;;5.68;2.67;;;384.40;2252.80;;;;;;5014391;28;20053;-85
2021/05/24 04:32:47;;;;;;;3.63;2.00;;;384.50;2252.80;;;;;;5033132;28;20099;-85
2021/05/24 04:35:14;;;;;;;5.28;2.58;;;384.50;2278.40;;;;;;5016689;28;20025;-86
2021/05/24 04:37:41;;;;;;;5.93;2.75;;;384.60;2252.80;;;;;;5017268;28;20491;-86
2021/05/24 04:40:07;;;;;;;6.65;2.65;;;384.30;2304.00;;;;;;5033069;28;20029;-85
2021/05/24 04:42:33;;;;;;;4.07;2.78;;;384.40;2304.00;;;;;;5033588;28;20498;-86
2021/05/24 04:44:58;;;;;;;17.10;2.75;;;384.30;2304.00;;;;;;5033019;28;20034;-86
2021/05/24 04:47:24;;;;;;;5.78;2.65;;;384.20;2329.60;;;;;;5016423;28;20043;-85
2021/05/24 04:49:50;;;;;;;5.07;2.75;;;384.20;2304.00;;;;;;5047305;28;20036;-86
2021/05/24 04:52:17;;;;;;;5.13;3.00;;;384.40;2304.00;;;;;;5105495;28;20374;-89
2021/05/24 04:54:43;;;;;;;5.13;3.10;;;384.60;2278.40;;;;;;5092460;28;20038;-85
2021/05/24 04:57:09;;;;;;;5.45;3.15;;;384.20;2329.60;;;;;;5104048;28;20054;-88
2021/05/24 04:59:35;;;;;;;7.45;4.70;;;384.30;2304.00;;;;;;5108045;28;20363;-87
2021/05/24 05:02:01;;;;;;;6.93;4.38;;;384.30;2304.00;;;;;;5102685;28;20030;-88
2021/05/24 05:04:27;;;;;;;7.80;4.72;;;384.40;2329.60;;;;;;5102529;28;20020;-89
2021/05/24 05:06:55;;;;;;;9.05;4.78;;;384.40;2329.60;;;;;;5101547;28;20525;-84
2021/05/24 05:09:21;;;;;;;12.38;6.15;;;384.50;2329.60;;;;;;5105066;28;20028;-84
2021/05/24 05:11:47;;;;;;;8.55;6.10;;;384.50;2304.00;;;;;;5103865;28;20038;-84
2021/05/24 05:14:12;;;;;;;8.75;5.40;;;384.60;2329.60;;;;;;5100798;28;20030;-88
2021/05/24 05:16:38;;;;;;;6.15;4.35;;;384.60;2304.00;;;;;;5104199;28;20023;-86
2021/05/24 05:19:04;;;;;;;5.82;3.40;;;384.80;2278.40;;;;;;5098972;28;20069;-87
2021/05/24 05:21:30;;;;;;;6.50;3.20;;;409.60;2252.80;;;;;;5109534;28;20057;-86
2021/05/24 05:23:56;;;;;;;3.33;2.33;;;409.60;2227.20;;;;;;5104267;28;20035;-86
2021/05/24 05:26:21;;;;;;;5.80;2.67;;;409.80;2227.20;;;;;;5112286;28;20019;-89
2021/05/24 05:28:47;;;;;;;4.72;2.45;;;409.90;2176.00;;;;;;5115279;28;20020;-87
2021/05/24 05:31:14;;;;;;;7.07;2.60;;;410.00;2201.60;;;;;;5114129;28;20043;-91
2021/05/24 05:33:39;;;;;;;10.50;2.97;;;410.20;2176.00;;;;;;5114373;28;20024;-86
2021/05/24 05:36:06;;;;;;;3.90;2.08;;;410.20;2176.00;;;;;;5114110;28;20034;-86
2021/05/24 05:38:33;;;;;;;4.20;2.15;;;410.00;2176.00;;;;;;5114139;28;20028;-85
2021/05/24 05:40:59;;;;;;;3.70;1.88;;;410.30;2150.40;;;;;;5114144;28;20031;-87
2021/05/24 05:43:25;;;;;;;6.97;2.17;;;410.30;2073.60;;;;;;5114005;28;20042;-85
2021/05/24 05:45:51;;;;;;;5.03;1.52;;;410.30;2073.60;;;;;;5114188;28;20040;-88
2021/05/24 05:48:17;;;;;;;8.07;1.73;;;410.50;2048.00;;;;;;5113973;28;20073;-89
2021/05/24 05:50:43;;;;;;;3.25;1.70;;;410.50;2048.00;;;;;;5114075;28;20114;-88
2021/05/24 05:53:09;;;;;;;4.90;1.95;;;435.20;1996.80;;;;;;5113830;28;20027;-85
2021/05/24 05:55:35;;;;;;;7.55;2.08;;;435.20;2048.00;;;;;;5107879;28;20024;-86
2021/05/24 05:58:00;;;;;;;4.63;2.03;;;435.20;2048.00;;;;;;5105105;28;20039;-84
2021/05/24 06:00:26;;;;;;;3.38;1.60;;;435.30;2048.00;;;;;;5103401;28;20110;-82
2021/05/24 06:02:52;;;;;;;6.18;2.30;;;435.20;2022.40;;;;;;5111484;28;20027;-82
2021/05/24 06:05:17;;;;;;;6.78;2.47;;;435.20;2022.40;;;;;;5107787;28;20027;-82
2021/05/24 06:07:43;;;;;;;3.20;1.75;;;435.40;2022.40;;;;;;5104278;28;20031;-82
2021/05/24 06:10:11;;;;;;;6.30;1.95;;;435.40;2022.40;;;;;;5097827;28;20023;-87
2021/05/24 06:12:37;;;;;;;9.55;1.95;;;435.50;2022.40;;;;;;5111189;28;20031;-89
2021/05/24 06:15:04;;;;;;;5.07;1.88;;;435.50;1996.80;;;;;;5114460;28;20103;-85
2021/05/24 06:17:30;;;;;;;4.00;1.35;;;435.50;1996.80;;;;;;5113078;28;20034;-88
2021/05/24 06:19:55;;;;;;;3.33;1.63;;;435.60;1996.80;;;;;;5107052;28;20015;-87
2021/05/24 06:22:21;;;;;;;4.38;2.20;;;435.70;1996.80;;;;;;5112780;28;20028;-82
2021/05/24 06:24:47;;;;;;;3.30;1.80;;;435.80;1996.80;;;;;;5102935;28;20036;-84
2021/05/24 06:27:13;;;;;;;2.67;1.58;;;435.90;1971.20;;;;;;5099146;28;20080;-80
2021/05/24 06:29:38;;;;;;;6.90;2.40;;;436.00;1894.40;;;;;;5112618;28;20103;-87
2021/05/24 06:32:05;;;;;;;6.30;1.70;;;436.10;1894.40;;;;;;5113142;28;20023;-85
2021/05/24 06:34:30;;;;;;;2.35;1.45;;;436.10;1920.00;;;;;;5114003;28;20046;-84
2021/05/24 06:36:56;;;;;;;2.45;1.50;;;436.10;1945.60;;;;;;5107682;28;20028;-87
2021/05/24 06:39:22;;;;;;;2.72;1.88;;;460.80;1945.60;;;;;;5112626;28;20024;-89
2021/05/24 06:41:48;;;;;;;5.72;2.03;;;460.80;1971.20;;;;;;5113084;28;20023;-85
2021/05/24 06:44:14;;;;;;;5.95;1.80;;;460.90;1971.20;;;;;;5112711;28;20042;-86
2021/05/24 06:46:40;;;;;;;4.80;2.30;;;461.00;1920.00;;;;;;5113115;28;20019;-84
2021/05/24 06:49:06;;;;;;;6.57;2.08;;;436.10;1894.40;;;;;;5098360;28;20485;-87
2021/05/24 06:51:32;;;;;;;6.15;1.77;;;460.80;1945.60;;;;;;5113012;28;20034;-86
2021/05/24 06:53:58;;;;;;;4.88;1.90;;;461.00;1945.60;;;;;;5108520;28;20040;-88
2021/05/24 06:56:23;;;;;;;7.03;1.73;;;461.10;1996.80;;;;;;5091701;28;20027;-83
2021/05/24 06:58:49;;;;;;;5.88;2.10;;;461.20;1920.00;;;;;;5102140;28;20389;-85
2021/05/24 07:01:15;;;;;;;3.15;1.63;;;461.30;1894.40;;;;;;5109211;28;20028;-85
2021/05/24 07:03:41;;;;;;;7.32;1.85;;;461.30;1894.40;;;;;;5113705;28;20047;-84
2021/05/24 07:06:06;;;;;;;5.53;2.00;;;461.40;1920.00;;;;;;5111767;28;20028;-82
2021/05/24 07:08:32;;;;;;;3.08;1.58;;;461.30;1843.20;;;;;;5113641;28;20059;-84
2021/05/24 07:10:58;;;;;;;2.40;1.30;;;461.40;1920.00;;;;;;5112361;28;20048;-84
2021/05/24 07:13:24;;;;;;;3.50;1.50;;;461.50;1945.60;;;;;;5112179;28;20080;-83
2021/05/24 07:15:50;;;;;;;7.95;3.38;;;461.30;1868.80;;;;;;5100865;28;20020;-84
2021/05/24 07:18:19;;;;;;;8.35;2.47;;;461.30;1868.80;;;;;;5109190;28;20034;-83
2021/05/24 07:20:46;;;;;;;7.53;1.40;;;461.40;1843.20;;;;;;5103589;28;20080;-87
2021/05/24 07:23:13;;;;;;;2.22;1.50;;;461.50;1868.80;;;;;;5102580;28;20035;-83
2021/05/24 07:25:39;;;;;;;3.33;1.10;;;461.70;1868.80;;;;;;5101972;28;20028;-85
2021/05/24 07:28:06;;;;;;;2.75;1.58;;;461.70;1868.80;;;;;;5100830;28;20043;-86
2021/05/24 07:30:32;;;;;;;2.78;1.40;;;486.40;1868.80;;;;;;5100747;28;20019;-86
2021/05/24 07:32:57;;;;;;;10.95;1.60;;;486.40;1792.00;;;;;;5107443;28;20016;-87
2021/05/24 07:35:23;;;;;;;4.55;1.42;;;461.70;1817.60;;;;;;5106876;28;20059;-86
2021/05/24 07:37:49;;;;;;;3.80;1.88;;;461.70;1868.80;;;;;;5088665;28;20383;-90
2021/05/24 07:40:15;;;;;;;3.28;1.25;;;486.40;1792.00;;;;;;5101804;28;20024;-89
2021/05/24 07:42:41;;;;;;;5.70;1.58;;;486.40;1843.20;;;;;;5107884;28;20032;-89
2021/05/24 07:45:08;;;;;;;2.53;1.50;;;486.40;1868.80;;;;;;5105250;28;20043;-88
2021/05/24 07:47:35;;;;;;;7.75;1.45;;;486.50;1894.40;;;;;;5116119;28;20034;-88
2021/05/24 07:50:01;;;;;;;4.78;1.10;;;486.90;1817.60;;;;;;5116202;28;20035;-87
2021/05/24 07:52:27;;;;;;;3.50;1.80;;;486.80;1843.20;;;;;;5116194;28;20026;-87
2021/05/24 07:54:53;;;;;;;5.05;1.60;;;487.00;1766.40;;;;;;5112429;28;20025;-87
2021/05/24 07:57:18;;;;;;;9.43;2.55;;;487.10;1715.20;;;;;;5105321;28;20036;-86
2021/05/24 07:59:44;;;;;;;3.58;1.67;;;487.10;1766.40;;;;;;5101095;28;20032;-89
2021/05/24 08:02:10;;;;;;;5.20;1.77;;;512.00;1792.00;;;;;;5109341;28;20548;-85
2021/05/24 08:04:36;;;;;;;2.28;1.25;;;512.20;1792.00;;;;;;5105238;28;20016;-86
2021/05/24 08:07:02;;;;;;;3.40;1.50;;;512.40;1715.20;;;;;;5107322;28;20023;-88
2021/05/24 08:09:30;;;;;;;2.20;1.20;;;512.30;1587.20;;;;;;5104774;28;20519;-89
2021/05/24 08:11:56;;;;;;;7.05;1.70;;;487.30;1715.20;;;;;;5108575;28;20023;-88
2021/05/24 08:14:22;;;;;;;2.75;1.40;;;487.20;1740.80;;;;;;5111934;28;20027;-89
2021/05/24 08:16:48;;;;;;;3.95;1.45;;;487.00;1740.80;;;;;;5112321;28;20032;-89
2021/05/24 08:19:14;;;;;;;2.40;1.30;;;487.10;1792.00;;;;;;5109265;28;20039;-89
2021/05/24 08:21:45;;;;;;;4.00;1.40;;;486.40;1715.20;;;;;;5115582;28;20020;-86
2021/05/24 08:24:12;;;;;;;3.20;1.60;;;486.70;1715.20;;;;;;5115441;28;20089;-89
2021/05/24 08:26:38;;;;;;;5.40;1.30;;;487.00;1664.00;;;;;;5106530;28;20024;-84
2021/05/24 08:29:04;;;;;;;6.28;1.67;;;487.10;1740.80;;;;;;5109596;28;20035;-88
2021/05/24 08:31:30;;;;;;;4.45;1.50;;;487.10;1664.00;;;;;;5106554;28;20012;-85
2021/05/24 08:33:57;;;;;;;1.92;1.15;;;487.10;1740.80;;;;;;5102977;28;20115;-89
2021/05/24 08:36:23;;;;;;;4.35;2.00;;;486.90;1740.80;;;;;;5108814;28;20027;-86
2021/05/24 08:38:49;;;;;;;2.58;1.48;;;486.90;1740.80;;;;;;5103576;28;20085;-87
2021/05/24 08:41:16;;;;;;;6.13;1.65;;;486.90;1766.40;;;;;;5112680;28;20023;-87
2021/05/24 08:43:43;;;;;;;2.65;0.90;;;487.00;1792.00;;;;;;5100175;28;20035;-88
2021/05/24 08:46:08;;;;;;;31.35;28.58;;;487.00;1715.20;;;;;;5100528;28;20023;-88
2021/05/24 08:48:35;;;;;;;5.13;1.63;;;487.00;1740.80;;;;;;5114896;28;20027;-85
2021/05/24 08:51:01;;;;;;;1.80;1.00;;;487.00;1689.60;;;;;;5114865;28;20028;-89
2021/05/24 08:53:29;;;;;;;2.67;1.35;;;512.10;1612.80;;;;;;5113130;28;20034;-87
2021/05/24 08:55:55;;;;;;;2.17;1.27;;;512.30;1689.60;;;;;;5115112;28;20031;-87
2021/05/24 08:58:22;;;;;;;7.28;1.42;;;487.30;1689.60;;;;;;5114820;28;20032;-86
2021/05/24 09:00:48;;;;;;;4.88;1.60;;;487.00;1715.20;;;;;;5114535;28;20023;-83
2021/05/24 09:03:22;;;;;;;1.52;1.13;;;487.00;1766.40;;;;;;5115146;28;20023;-86
2021/05/24 09:05:48;;;;;;;6.50;1.50;;;487.00;1715.20;;;;;;5113785;28;20031;-86
2021/05/24 09:08:15;;;;;;;5.38;1.00;;;487.30;1689.60;;;;;;5114470;28;20065;-85
2021/05/24 09:10:46;;;;;;;2.85;1.30;;;487.30;1664.00;;;;;;5115703;28;20442;-85
2021/05/24 09:13:18;;;;;;;5.00;1.15;;;512.10;1638.40;;;;;;5114458;28;20059;-85
2021/05/24 09:15:46;;;;;;;3.88;1.27;;;512.20;1689.60;;;;;;5115603;28;20024;-84
2021/05/24 09:18:13;;;;;;;6.18;1.30;;;512.20;1664.00;;;;;;5114150;28;20084;-86
2021/05/24 09:20:41;;;;;;;3.95;1.17;;;512.30;1612.80;;;;;;5112387;28;20031;-85
2021/05/24 09:23:08;;;;;;;1.92;1.00;;;512.30;1638.40;;;;;;5114249;28;20024;-86
2021/05/24 09:25:52;;;;;;;4.53;1.70;;;512.40;1664.00;;;;;;5109548;28;20028;-87
2021/05/24 09:28:43;;;;;;;2.38;1.05;;;512.40;1664.00;;;;;;5104324;28;20036;-85
2021/05/24 09:31:16;;;;;;;2.50;0.90;;;512.40;1587.20;;;;;;5101610;28;20020;-86
2021/05/24 09:33:50;;;;;;;1.98;1.10;;;512.40;1612.80;;;;;;5101715;28;20032;-87
2021/05/24 09:36:16;;;;;;;4.97;1.35;;;512.40;1664.00;;;;;;5102301;28;20108;-87
2021/05/24 09:38:42;;;;;;;1.63;0.93;;;512.50;1638.40;;;;;;5103853;28;20019;-86
2021/05/24 09:41:10;;;;;;;3.10;1.33;;;512.60;1612.80;;;;;;5100199;28;20016;-87
2021/05/24 09:43:49;;;;;;;1.27;0.98;;;512.70;1587.20;;;;;;5110742;28;20043;-86
2021/05/24 09:46:26;;;;;;;3.88;1.30;;;512.80;1561.60;;;;;;5110569;28;20060;-85
2021/05/24 09:48:54;;;;;;;2.83;1.27;;;537.70;1510.40;;;;;;5093334;28;20024;-87
2021/05/24 09:51:23;;;;;;;4.82;1.33;;;537.70;1536.00;;;;;;5092798;28;20467;-87
2021/05/24 09:54:01;;;;;;;1.63;1.02;;;512.90;1612.80;;;;;;5099626;28;20024;-86
2021/05/24 09:56:29;;;;;;;2.50;1.00;;;512.80;1587.20;;;;;;5095504;28;20550;-87
2021/05/24 09:59:07;;;;;;;1.88;1.00;;;512.90;1561.60;;;;;;5094622;28;20028;-86
2021/05/24 10:01:42;;;;;;;2.17;1.13;;;512.80;1612.80;;;;;;5092911;28;20030;-84
2021/05/24 10:04:28;;;;;;;5.55;1.20;;;537.80;1612.80;;;;;;5093359;28;20039;-84
2021/05/24 10:06:57;;;;;;;3.42;1.42;;;538.10;1587.20;;;;;;5094014;28;20056;-83
2021/05/24 10:09:23;;;;;;;1.17;0.93;;;538.20;1561.60;;;;;;5102558;28;20030;-77
2021/05/24 10:11:53;;;;;;;3.22;1.55;;;537.90;1561.60;;;;;;5104150;28;20484;-84
2021/05/24 10:14:23;;;;;;;7.72;1.00;;;537.90;1536.00;;;;;;5114289;28;20041;-89
2021/05/24 10:16:51;;;;;;;6.40;1.65;;;538.00;1587.20;;;;;;5111709;28;20032;-88
2021/05/24 10:19:18;;;;;;;2.08;1.10;;;538.10;1561.60;;;;;;5112533;28;20086;-88
2021/05/24 10:21:46;;;;;;;1.52;1.10;;;538.00;1612.80;;;;;;5109009;28;20073;-87
2021/05/24 10:24:13;;;;;;;2.97;1.00;;;538.20;1587.20;;;;;;5099175;28;20139;-87
2021/05/24 10:26:41;;;;;;;2.22;1.10;;;537.90;1587.20;;;;;;5102945;28;20059;-87
2021/05/24 10:29:07;;;;;;;1.58;0.90;;;538.00;1664.00;;;;;;5112443;28;20023;-85
2021/05/24 10:31:34;;;;;;;3.33;1.00;;;537.80;1612.80;;;;;;5098631;28;20050;-84
2021/05/24 10:34:19;;;;;;;11.15;2.13;;;537.80;1612.80;;;;;;5106052;28;20023;-84
2021/05/24 10:37:05;;;;;;;1.67;0.90;;;512.90;1587.20;;;;;;5098751;28;20072;-85
2021/05/24 10:39:43;;;;;;;3.38;1.30;;;537.60;1561.60;;;;;;5092702;28;20024;-84
2021/05/24 10:42:11;;;;;;;1.88;1.10;;;512.90;1561.60;;;;;;5112313;28;20024;-85
2021/05/24 10:44:44;;;;;;;2.13;1.33;;;512.80;1638.40;;;;;;5103251;28;20036;-85
2021/05/24 10:47:18;;;;;;;3.63;1.52;;;512.80;1561.60;;;;;;5102152;28;20089;-84
2021/05/24 10:50:07;;;;;;;3.88;1.20;;;512.60;1612.80;;;;;;5103327;28;20057;-85
2021/05/24 10:52:38;;;;;;;1.30;1.00;;;512.70;1612.80;;;;;;5100791;28;20107;-81
2021/05/24 10:55:26;;;;;;;5.93;1.17;;;512.70;1612.80;;;;;;5101308;28;20652;-84
2021/05/24 10:58:20;;;;;;;3.22;1.02;;;512.90;1612.80;;;;;;5103420;28;20055;-84
2021/05/24 11:00:50;;;;;;;4.03;1.35;;;512.90;1638.40;;;;;;5099957;28;20042;-84
2021/05/24 11:03:16;;;;;;;4.07;1.10;;;512.80;1612.80;;;;;;5100826;28;20028;-83
2021/05/24 11:05:46;;;;;;;4.15;1.13;;;512.90;1664.00;;;;;;5100485;28;20016;-84
2021/05/24 11:08:23;;;;;;;3.33;1.02;;;537.60;1664.00;;;;;;5110336;28;20027;-83
2021/05/24 11:10:49;;;;;;;1.00;0.90;;;537.60;1612.80;;;;;;5111818;28;20027;-85
2021/05/24 11:13:17;;;;;;;5.85;1.40;;;512.90;1612.80;;;;;;5111503;28;20027;-84
2021/05/24 11:15:44;;;;;;;2.70;0.93;;;512.80;1587.20;;;;;;5113166;28;20131;-83
2021/05/24 11:18:13;;;;;;;2.63;1.15;;;512.90;1536.00;;;;;;5111462;28;20468;-84
2021/05/24 11:20:57;;;;;;;3.88;1.05;;;512.90;1587.20;;;;;;5111711;28;20431;-83
2021/05/24 11:26:46;;;;;;;4.78;1.35;;;512.90;1587.20;;;;;;5101245;28;20031;-81
2021/05/24 11:29:17;;;;;;;6.45;1.52;;;512.80;1638.40;;;;;;5106275;22;20111;-84
2021/05/24 11:31:56;;;;;;;2.60;1.05;;;512.90;1612.80;;;;;;5019666;28;20025;-84
2021/05/24 11:34:33;;;;;;;3.30;1.30;;;512.90;1612.80;;;;;;5004910;28;20033;-82
2021/05/24 11:36:59;;;;;;;1.88;0.80;;;537.70;1664.00;;;;;;5011500;28;20526;-84
2021/05/24 11:39:33;;;;;;;3.25;1.63;;;537.80;1664.00;;;;;;5001552;28;20057;-84
2021/05/24 11:42:10;;;;;;;7.72;1.98;;;537.90;1638.40;;;;;;5015399;28;20028;-85
2021/05/24 11:44:45;;;;;;;3.13;1.40;;;538.10;1638.40;;;;;;5014980;28;20030;-85
2021/05/24 11:47:24;;;;;;;5.25;1.08;;;538.40;1612.80;;;;;;5012039;28;20041;-85
2021/05/24 11:49:55;;;;;;;2.45;1.20;;;538.40;1612.80;;;;;;5009090;28;20085;-84
2021/05/24 11:52:28;;;;;;;5.65;1.33;;;538.30;1587.20;;;;;;5009952;28;20025;-85
2021/05/24 11:54:54;;;;;;;6.00;1.60;;;538.10;1638.40;;;;;;5029611;28;20018;-87
2021/05/24 11:57:25;;;;;;;5.07;1.45;;;538.30;1612.80;;;;;;5015596;28;20551;-82
2021/05/24 11:59:51;;;;;;;2.72;1.02;;;538.30;1638.40;;;;;;5024772;28;20489;-86
2021/05/24 12:02:20;;;;;;;5.43;1.30;;;538.20;1612.80;;;;;;5039933;28;20013;-85
2021/05/24 12:04:46;;;;;;;3.55;1.33;;;538.30;1587.20;;;;;;5039336;28;20025;-85
2021/05/24 12:07:19;;;;;;;6.68;2.70;;;538.50;1638.40;;;;;;5037370;28;20022;-84
2021/05/24 12:09:56;;;;;;;4.38;1.65;;;538.50;1612.80;;;;;;5018946;28;20113;-86
2021/05/24 12:12:23;;;;;;;2.65;1.10;;;538.40;1587.20;;;;;;5032475;28;20029;-83
2021/05/24 12:14:55;;;;;;;1.95;1.30;;;538.20;1587.20;;;;;;5041117;28;20104;-82
2021/05/24 12:17:33;;;;;;;5.05;1.75;;;538.00;1638.40;;;;;;5032690;28;20045;-84
2021/05/24 12:20:00;;;;;;;3.35;1.23;;;537.80;1638.40;;;;;;5015079;28;20018;-85
2021/05/24 12:22:29;;;;;;;5.60;1.88;;;537.90;1638.40;;;;;;5014634;28;20039;-82
2021/05/24 12:24:57;;;;;;;2.45;1.25;;;537.90;1664.00;;;;;;5017823;28;20037;-85
2021/05/24 12:27:24;;;;;;;4.53;1.27;;;537.60;1612.80;;;;;;5025078;28;20087;-83